sensor_id;sensor_type;location;lat;lon;timestamp;P1;durP1;ratioP1;P2;durP2;ratioP2
21539;SDS011;10931;52.164;5.518;2023-05-09T00:00:05;5.15;;;3.47;;
21539;SDS011;10931;52.164;5.518;2023-05-09T00:02:35;5.75;;;4.18;;
21539;SDS011;10931;52.164;5.518;2023-05-09T00:05:04;4.85;;;3.58;;
21539;SDS011;10931;52.164;5.518;2023-05-09T00:07:31;5.53;;;3.47;;
21539;SDS011;10931;52.164;5.518;2023-05-09T00:10:01;5.00;;;3.55;;
21539;SDS011;10931;52.164;5.518;2023-05-09T00:12:28;6.32;;;4.22;;
21539;SDS011;10931;52.164;5.518;2023-05-09T00:14:54;5.97;;;3.88;;
21539;SDS011;10931;52.164;5.518;2023-05-09T00:17:21;5.20;;;3.63;;
21539;SDS011;10931;52.164;5.518;2023-05-09T00:19:48;6.07;;;4.13;;
21539;SDS011;10931;52.164;5.518;2023-05-09T00:22:16;6.05;;;3.88;;
21539;SDS011;10931;52.164;5.518;2023-05-09T00:24:45;5.57;;;3.60;;
21539;SDS011;10931;52.164;5.518;2023-05-09T00:27:11;5.43;;;3.53;;
21539;SDS011;10931;52.164;5.518;2023-05-09T00:29:37;6.90;;;4.25;;
21539;SDS011;10931;52.164;5.518;2023-05-09T00:32:02;5.82;;;4.03;;
21539;SDS011;10931;52.164;5.518;2023-05-09T00:34:28;6.72;;;3.78;;
21539;SDS011;10931;52.164;5.518;2023-05-09T00:36:54;6.63;;;4.25;;
21539;SDS011;10931;52.164;5.518;2023-05-09T00:39:20;5.40;;;3.90;;
21539;SDS011;10931;52.164;5.518;2023-05-09T00:41:46;6.25;;;3.83;;
21539;SDS011;10931;52.164;5.518;2023-05-09T00:44:11;4.93;;;3.35;;
21539;SDS011;10931;52.164;5.518;2023-05-09T00:46:37;6.68;;;4.13;;
21539;SDS011;10931;52.164;5.518;2023-05-09T00:49:04;4.90;;;3.50;;
21539;SDS011;10931;52.164;5.518;2023-05-09T00:51:29;4.85;;;3.33;;
21539;SDS011;10931;52.164;5.518;2023-05-09T00:53:56;6.55;;;3.90;;
21539;SDS011;10931;52.164;5.518;2023-05-09T00:56:22;7.05;;;3.90;;
21539;SDS011;10931;52.164;5.518;2023-05-09T00:58:48;4.53;;;3.10;;
21539;SDS011;10931;52.164;5.518;2023-05-09T01:01:14;4.45;;;3.28;;
21539;SDS011;10931;52.164;5.518;2023-05-09T01:03:40;4.97;;;3.45;;
21539;SDS011;10931;52.164;5.518;2023-05-09T01:06:12;6.50;;;4.22;;
21539;SDS011;10931;52.164;5.518;2023-05-09T01:08:46;6.85;;;4.07;;
21539;SDS011;10931;52.164;5.518;2023-05-09T01:11:28;5.20;;;3.83;;
21539;SDS011;10931;52.164;5.518;2023-05-09T01:14:36;6.15;;;3.60;;
21539;SDS011;10931;52.164;5.518;2023-05-09T01:17:15;5.13;;;3.75;;
21539;SDS011;10931;52.164;5.518;2023-05-09T01:20:06;5.88;;;3.88;;
21539;SDS011;10931;52.164;5.518;2023-05-09T01:23:00;5.35;;;3.40;;
21539;SDS011;10931;52.164;5.518;2023-05-09T01:31:55;6.90;;;3.97;;
21539;SDS011;10931;52.164;5.518;2023-05-09T01:34:23;6.28;;;3.60;;
21539;SDS011;10931;52.164;5.518;2023-05-09T01:36:52;4.57;;;3.35;;
21539;SDS011;10931;52.164;5.518;2023-05-09T01:39:24;5.40;;;3.60;;
21539;SDS011;10931;52.164;5.518;2023-05-09T01:41:55;5.28;;;3.35;;
21539;SDS011;10931;52.164;5.518;2023-05-09T01:44:24;5.25;;;3.70;;
21539;SDS011;10931;52.164;5.518;2023-05-09T01:46:54;5.03;;;3.90;;
21539;SDS011;10931;52.164;5.518;2023-05-09T01:49:21;5.50;;;4.00;;
21539;SDS011;10931;52.164;5.518;2023-05-09T01:57:03;5.47;;;3.58;;
21539;SDS011;10931;52.164;5.518;2023-05-09T01:59:32;7.75;;;3.63;;
21539;SDS011;10931;52.164;5.518;2023-05-09T02:01:59;4.68;;;3.28;;
21539;SDS011;10931;52.164;5.518;2023-05-09T02:04:29;6.03;;;3.70;;
21539;SDS011;10931;52.164;5.518;2023-05-09T02:06:56;5.25;;;3.42;;
21539;SDS011;10931;52.164;5.518;2023-05-09T02:09:22;5.80;;;3.67;;
21539;SDS011;10931;52.164;5.518;2023-05-09T02:11:53;4.07;;;3.15;;
21539;SDS011;10931;52.164;5.518;2023-05-09T02:14:19;5.32;;;3.80;;
21539;SDS011;10931;52.164;5.518;2023-05-09T02:16:45;4.75;;;3.35;;
21539;SDS011;10931;52.164;5.518;2023-05-09T02:19:10;5.90;;;3.63;;
21539;SDS011;10931;52.164;5.518;2023-05-09T02:21:37;4.22;;;3.13;;
21539;SDS011;10931;52.164;5.518;2023-05-09T02:24:03;5.90;;;3.60;;
21539;SDS011;10931;52.164;5.518;2023-05-09T02:26:29;4.45;;;3.28;;
21539;SDS011;10931;52.164;5.518;2023-05-09T02:28:55;4.78;;;3.28;;
21539;SDS011;10931;52.164;5.518;2023-05-09T02:31:22;5.53;;;3.58;;
21539;SDS011;10931;52.164;5.518;2023-05-09T02:33:49;4.85;;;3.30;;
21539;SDS011;10931;52.164;5.518;2023-05-09T02:36:17;5.43;;;3.45;;
21539;SDS011;10931;52.164;5.518;2023-05-09T02:38:43;5.18;;;3.63;;
21539;SDS011;10931;52.164;5.518;2023-05-09T02:41:13;5.53;;;3.30;;
21539;SDS011;10931;52.164;5.518;2023-05-09T02:43:42;5.57;;;3.38;;
21539;SDS011;10931;52.164;5.518;2023-05-09T02:46:08;6.03;;;3.78;;
21539;SDS011;10931;52.164;5.518;2023-05-09T02:48:34;5.32;;;3.35;;
21539;SDS011;10931;52.164;5.518;2023-05-09T02:51:00;5.22;;;3.50;;
21539;SDS011;10931;52.164;5.518;2023-05-09T02:53:26;5.60;;;3.63;;
21539;SDS011;10931;52.164;5.518;2023-05-09T02:55:55;4.18;;;3.15;;
21539;SDS011;10931;52.164;5.518;2023-05-09T02:58:22;4.07;;;2.95;;
21539;SDS011;10931;52.164;5.518;2023-05-09T03:00:48;5.25;;;3.60;;
21539;SDS011;10931;52.164;5.518;2023-05-09T03:03:24;4.93;;;3.45;;
21539;SDS011;10931;52.164;5.518;2023-05-09T03:05:50;5.55;;;3.60;;
21539;SDS011;10931;52.164;5.518;2023-05-09T03:08:16;4.32;;;3.15;;
21539;SDS011;10931;52.164;5.518;2023-05-09T03:10:44;4.95;;;3.58;;
21539;SDS011;10931;52.164;5.518;2023-05-09T03:13:12;5.28;;;3.47;;
21539;SDS011;10931;52.164;5.518;2023-05-09T03:15:37;4.93;;;3.47;;
21539;SDS011;10931;52.164;5.518;2023-05-09T03:18:03;4.88;;;3.55;;
21539;SDS011;10931;52.164;5.518;2023-05-09T03:20:29;5.35;;;3.30;;
21539;SDS011;10931;52.164;5.518;2023-05-09T03:22:55;4.93;;;3.13;;
21539;SDS011;10931;52.164;5.518;2023-05-09T03:25:20;5.57;;;3.38;;
21539;SDS011;10931;52.164;5.518;2023-05-09T03:27:53;4.72;;;3.35;;
21539;SDS011;10931;52.164;5.518;2023-05-09T03:30:19;5.20;;;3.35;;
21539;SDS011;10931;52.164;5.518;2023-05-09T03:32:45;4.43;;;3.05;;
21539;SDS011;10931;52.164;5.518;2023-05-09T03:35:10;4.38;;;3.17;;
21539;SDS011;10931;52.164;5.518;2023-05-09T03:37:41;4.35;;;2.92;;
21539;SDS011;10931;52.164;5.518;2023-05-09T03:40:07;4.95;;;3.40;;
21539;SDS011;10931;52.164;5.518;2023-05-09T03:42:33;4.82;;;3.50;;
21539;SDS011;10931;52.164;5.518;2023-05-09T03:44:58;5.55;;;3.63;;
21539;SDS011;10931;52.164;5.518;2023-05-09T03:47:26;4.72;;;3.13;;
21539;SDS011;10931;52.164;5.518;2023-05-09T03:49:52;4.32;;;3.15;;
21539;SDS011;10931;52.164;5.518;2023-05-09T03:52:18;5.07;;;3.40;;
21539;SDS011;10931;52.164;5.518;2023-05-09T03:54:43;4.43;;;3.10;;
21539;SDS011;10931;52.164;5.518;2023-05-09T03:57:12;4.93;;;3.25;;
21539;SDS011;10931;52.164;5.518;2023-05-09T03:59:48;4.57;;;3.00;;
21539;SDS011;10931;52.164;5.518;2023-05-09T04:02:14;5.25;;;3.45;;
21539;SDS011;10931;52.164;5.518;2023-05-09T04:04:40;5.03;;;3.25;;
21539;SDS011;10931;52.164;5.518;2023-05-09T04:07:05;4.82;;;3.50;;
21539;SDS011;10931;52.164;5.518;2023-05-09T04:09:34;4.68;;;3.30;;
21539;SDS011;10931;52.164;5.518;2023-05-09T04:11:59;4.80;;;3.30;;
21539;SDS011;10931;52.164;5.518;2023-05-09T04:14:25;5.80;;;3.08;;
21539;SDS011;10931;52.164;5.518;2023-05-09T04:16:51;4.85;;;3.33;;
21539;SDS011;10931;52.164;5.518;2023-05-09T04:19:16;4.75;;;3.15;;
21539;SDS011;10931;52.164;5.518;2023-05-09T04:21:45;4.68;;;3.35;;
21539;SDS011;10931;52.164;5.518;2023-05-09T04:24:11;4.72;;;3.00;;
21539;SDS011;10931;52.164;5.518;2023-05-09T04:26:36;4.15;;;3.03;;
21539;SDS011;10931;52.164;5.518;2023-05-09T04:29:03;4.93;;;3.28;;
21539;SDS011;10931;52.164;5.518;2023-05-09T04:31:28;4.28;;;3.33;;
21539;SDS011;10931;52.164;5.518;2023-05-09T04:33:55;4.43;;;2.78;;
21539;SDS011;10931;52.164;5.518;2023-05-09T04:36:22;4.43;;;3.00;;
21539;SDS011;10931;52.164;5.518;2023-05-09T04:38:48;4.25;;;3.10;;
21539;SDS011;10931;52.164;5.518;2023-05-09T04:41:13;4.97;;;3.22;;
21539;SDS011;10931;52.164;5.518;2023-05-09T04:43:40;3.30;;;2.70;;
21539;SDS011;10931;52.164;5.518;2023-05-09T04:46:06;4.45;;;3.05;;
21539;SDS011;10931;52.164;5.518;2023-05-09T04:48:34;4.78;;;3.10;;
21539;SDS011;10931;52.164;5.518;2023-05-09T04:51:00;4.10;;;3.00;;
21539;SDS011;10931;52.164;5.518;2023-05-09T04:53:26;5.70;;;3.70;;
21539;SDS011;10931;52.164;5.518;2023-05-09T04:55:52;4.55;;;3.10;;
21539;SDS011;10931;52.164;5.518;2023-05-09T04:58:18;4.43;;;3.13;;
21539;SDS011;10931;52.164;5.518;2023-05-09T05:00:44;3.88;;;3.13;;
21539;SDS011;10931;52.164;5.518;2023-05-09T05:03:10;4.68;;;3.25;;
21539;SDS011;10931;52.164;5.518;2023-05-09T05:05:37;3.78;;;2.75;;
21539;SDS011;10931;52.164;5.518;2023-05-09T05:08:04;4.45;;;3.05;;
21539;SDS011;10931;52.164;5.518;2023-05-09T05:10:30;4.00;;;2.85;;
21539;SDS011;10931;52.164;5.518;2023-05-09T05:12:55;4.30;;;3.03;;
21539;SDS011;10931;52.164;5.518;2023-05-09T05:15:21;3.90;;;2.83;;
21539;SDS011;10931;52.164;5.518;2023-05-09T05:17:49;4.72;;;3.00;;
21539;SDS011;10931;52.164;5.518;2023-05-09T05:20:14;3.78;;;2.75;;
21539;SDS011;10931;52.164;5.518;2023-05-09T05:22:40;4.47;;;2.78;;
21539;SDS011;10931;52.164;5.518;2023-05-09T05:25:06;4.10;;;3.03;;
21539;SDS011;10931;52.164;5.518;2023-05-09T05:27:32;4.38;;;2.85;;
21539;SDS011;10931;52.164;5.518;2023-05-09T05:29:58;4.38;;;2.80;;
21539;SDS011;10931;52.164;5.518;2023-05-09T05:32:24;3.78;;;2.50;;
21539;SDS011;10931;52.164;5.518;2023-05-09T05:34:49;3.53;;;2.70;;
21539;SDS011;10931;52.164;5.518;2023-05-09T05:37:15;3.80;;;2.50;;
21539;SDS011;10931;52.164;5.518;2023-05-09T05:39:41;4.13;;;2.72;;
21539;SDS011;10931;52.164;5.518;2023-05-09T05:42:06;4.88;;;3.17;;
21539;SDS011;10931;52.164;5.518;2023-05-09T05:44:37;3.65;;;2.50;;
21539;SDS011;10931;52.164;5.518;2023-05-09T05:47:05;3.15;;;2.38;;
21539;SDS011;10931;52.164;5.518;2023-05-09T05:49:31;3.70;;;2.40;;
21539;SDS011;10931;52.164;5.518;2023-05-09T05:51:57;4.40;;;2.88;;
21539;SDS011;10931;52.164;5.518;2023-05-09T05:54:22;3.45;;;2.13;;
21539;SDS011;10931;52.164;5.518;2023-05-09T05:56:51;3.75;;;2.88;;
21539;SDS011;10931;52.164;5.518;2023-05-09T05:59:17;4.60;;;3.10;;
21539;SDS011;10931;52.164;5.518;2023-05-09T06:01:42;3.75;;;2.72;;
21539;SDS011;10931;52.164;5.518;2023-05-09T06:04:08;3.35;;;2.20;;
21539;SDS011;10931;52.164;5.518;2023-05-09T06:06:34;3.50;;;2.22;;
21539;SDS011;10931;52.164;5.518;2023-05-09T06:09:07;3.28;;;2.45;;
21539;SDS011;10931;52.164;5.518;2023-05-09T06:11:33;3.78;;;2.67;;
21539;SDS011;10931;52.164;5.518;2023-05-09T06:13:58;3.65;;;2.30;;
21539;SDS011;10931;52.164;5.518;2023-05-09T06:16:24;3.95;;;2.83;;
21539;SDS011;10931;52.164;5.518;2023-05-09T06:18:50;3.85;;;2.40;;
21539;SDS011;10931;52.164;5.518;2023-05-09T06:21:15;3.83;;;2.58;;
21539;SDS011;10931;52.164;5.518;2023-05-09T06:23:41;3.92;;;2.60;;
21539;SDS011;10931;52.164;5.518;2023-05-09T06:26:07;3.33;;;2.65;;
21539;SDS011;10931;52.164;5.518;2023-05-09T06:28:35;3.10;;;2.50;;
21539;SDS011;10931;52.164;5.518;2023-05-09T06:31:01;3.40;;;2.40;;
21539;SDS011;10931;52.164;5.518;2023-05-09T06:33:27;5.03;;;2.40;;
21539;SDS011;10931;52.164;5.518;2023-05-09T06:35:55;4.32;;;2.60;;
21539;SDS011;10931;52.164;5.518;2023-05-09T06:38:23;2.83;;;2.08;;
21539;SDS011;10931;52.164;5.518;2023-05-09T06:40:49;4.07;;;2.58;;
21539;SDS011;10931;52.164;5.518;2023-05-09T06:43:14;3.50;;;2.40;;
21539;SDS011;10931;52.164;5.518;2023-05-09T06:45:40;3.72;;;2.58;;
21539;SDS011;10931;52.164;5.518;2023-05-09T06:48:06;2.72;;;2.00;;
21539;SDS011;10931;52.164;5.518;2023-05-09T06:50:31;3.17;;;2.28;;
21539;SDS011;10931;52.164;5.518;2023-05-09T06:52:57;4.30;;;2.80;;
21539;SDS011;10931;52.164;5.518;2023-05-09T06:55:23;3.30;;;2.15;;
21539;SDS011;10931;52.164;5.518;2023-05-09T06:57:48;3.88;;;2.50;;
21539;SDS011;10931;52.164;5.518;2023-05-09T07:00:14;4.15;;;2.88;;
21539;SDS011;10931;52.164;5.518;2023-05-09T07:02:40;3.13;;;2.30;;
21539;SDS011;10931;52.164;5.518;2023-05-09T07:05:07;3.67;;;2.60;;
21539;SDS011;10931;52.164;5.518;2023-05-09T07:07:33;2.83;;;2.13;;
21539;SDS011;10931;52.164;5.518;2023-05-09T07:10:00;3.63;;;2.53;;
21539;SDS011;10931;52.164;5.518;2023-05-09T07:12:29;3.05;;;2.60;;
21539;SDS011;10931;52.164;5.518;2023-05-09T07:14:56;3.15;;;1.98;;
21539;SDS011;10931;52.164;5.518;2023-05-09T07:17:22;3.28;;;2.30;;
21539;SDS011;10931;52.164;5.518;2023-05-09T07:19:49;3.05;;;2.28;;
21539;SDS011;10931;52.164;5.518;2023-05-09T07:22:17;3.40;;;2.20;;
21539;SDS011;10931;52.164;5.518;2023-05-09T07:24:43;4.18;;;2.17;;
21539;SDS011;10931;52.164;5.518;2023-05-09T07:27:10;4.32;;;2.78;;
21539;SDS011;10931;52.164;5.518;2023-05-09T07:29:36;2.47;;;2.10;;
21539;SDS011;10931;52.164;5.518;2023-05-09T07:32:01;3.30;;;2.28;;
21539;SDS011;10931;52.164;5.518;2023-05-09T07:34:27;3.13;;;2.17;;
21539;SDS011;10931;52.164;5.518;2023-05-09T07:36:53;2.67;;;2.05;;
21539;SDS011;10931;52.164;5.518;2023-05-09T07:39:18;3.78;;;2.25;;
21539;SDS011;10931;52.164;5.518;2023-05-09T07:41:44;3.50;;;2.38;;
21539;SDS011;10931;52.164;5.518;2023-05-09T07:44:10;3.35;;;2.58;;
21539;SDS011;10931;52.164;5.518;2023-05-09T07:46:36;3.58;;;2.38;;
21539;SDS011;10931;52.164;5.518;2023-05-09T07:49:02;3.42;;;2.17;;
21539;SDS011;10931;52.164;5.518;2023-05-09T07:51:28;3.00;;;2.10;;
21539;SDS011;10931;52.164;5.518;2023-05-09T07:53:53;3.08;;;2.20;;
21539;SDS011;10931;52.164;5.518;2023-05-09T07:56:20;3.25;;;2.33;;
21539;SDS011;10931;52.164;5.518;2023-05-09T07:58:46;3.95;;;2.40;;
21539;SDS011;10931;52.164;5.518;2023-05-09T08:01:12;2.80;;;2.00;;
21539;SDS011;10931;52.164;5.518;2023-05-09T08:03:38;3.38;;;2.22;;
21539;SDS011;10931;52.164;5.518;2023-05-09T08:06:04;3.00;;;2.20;;
21539;SDS011;10931;52.164;5.518;2023-05-09T08:08:30;3.15;;;2.10;;
21539;SDS011;10931;52.164;5.518;2023-05-09T08:10:56;3.55;;;2.30;;
21539;SDS011;10931;52.164;5.518;2023-05-09T08:13:21;3.25;;;1.92;;
21539;SDS011;10931;52.164;5.518;2023-05-09T08:15:47;2.72;;;2.05;;
21539;SDS011;10931;52.164;5.518;2023-05-09T08:18:15;3.40;;;2.10;;
21539;SDS011;10931;52.164;5.518;2023-05-09T08:20:41;2.75;;;2.00;;
21539;SDS011;10931;52.164;5.518;2023-05-09T08:23:07;2.38;;;1.95;;
21539;SDS011;10931;52.164;5.518;2023-05-09T08:25:33;3.22;;;2.30;;
21539;SDS011;10931;52.164;5.518;2023-05-09T08:27:59;3.20;;;2.20;;
21539;SDS011;10931;52.164;5.518;2023-05-09T08:30:24;3.22;;;2.15;;
21539;SDS011;10931;52.164;5.518;2023-05-09T08:32:53;2.25;;;1.80;;
21539;SDS011;10931;52.164;5.518;2023-05-09T08:35:21;2.22;;;1.75;;
21539;SDS011;10931;52.164;5.518;2023-05-09T08:37:46;3.58;;;2.08;;
21539;SDS011;10931;52.164;5.518;2023-05-09T08:40:12;3.55;;;2.10;;
21539;SDS011;10931;52.164;5.518;2023-05-09T08:42:39;2.75;;;1.88;;
21539;SDS011;10931;52.164;5.518;2023-05-09T08:45:06;3.22;;;1.90;;
21539;SDS011;10931;52.164;5.518;2023-05-09T08:47:35;3.38;;;1.92;;
21539;SDS011;10931;52.164;5.518;2023-05-09T08:50:02;3.03;;;2.00;;
21539;SDS011;10931;52.164;5.518;2023-05-09T08:52:29;2.97;;;2.15;;
21539;SDS011;10931;52.164;5.518;2023-05-09T08:55:02;2.70;;;1.92;;
21539;SDS011;10931;52.164;5.518;2023-05-09T08:57:31;2.20;;;1.80;;
21539;SDS011;10931;52.164;5.518;2023-05-09T09:00:06;3.38;;;2.03;;
21539;SDS011;10931;52.164;5.518;2023-05-09T09:02:39;2.35;;;1.83;;
21539;SDS011;10931;52.164;5.518;2023-05-09T09:05:07;1.95;;;1.60;;
21539;SDS011;10931;52.164;5.518;2023-05-09T09:07:33;2.58;;;2.38;;
21539;SDS011;10931;52.164;5.518;2023-05-09T09:10:04;2.97;;;2.13;;
21539;SDS011;10931;52.164;5.518;2023-05-09T09:12:33;2.53;;;1.83;;
21539;SDS011;10931;52.164;5.518;2023-05-09T09:15:01;2.22;;;1.70;;
21539;SDS011;10931;52.164;5.518;2023-05-09T09:17:29;2.58;;;1.90;;
21539;SDS011;10931;52.164;5.518;2023-05-09T09:20:00;2.03;;;1.60;;
21539;SDS011;10931;52.164;5.518;2023-05-09T09:22:32;2.80;;;1.88;;
21539;SDS011;10931;52.164;5.518;2023-05-09T09:24:59;2.58;;;1.63;;
21539;SDS011;10931;52.164;5.518;2023-05-09T09:27:30;2.15;;;1.63;;
21539;SDS011;10931;52.164;5.518;2023-05-09T09:30:05;1.70;;;1.40;;
21539;SDS011;10931;52.164;5.518;2023-05-09T09:32:35;2.58;;;1.90;;
21539;SDS011;10931;52.164;5.518;2023-05-09T09:35:08;1.85;;;1.30;;
21539;SDS011;10931;52.164;5.518;2023-05-09T09:37:36;2.47;;;1.50;;
21539;SDS011;10931;52.164;5.518;2023-05-09T09:40:10;2.05;;;1.52;;
21539;SDS011;10931;52.164;5.518;2023-05-09T09:42:44;1.85;;;1.52;;
21539;SDS011;10931;52.164;5.518;2023-05-09T09:45:19;2.75;;;1.58;;
21539;SDS011;10931;52.164;5.518;2023-05-09T09:47:45;2.13;;;1.58;;
21539;SDS011;10931;52.164;5.518;2023-05-09T09:50:19;2.38;;;1.73;;
21539;SDS011;10931;52.164;5.518;2023-05-09T09:52:54;2.47;;;1.70;;
21539;SDS011;10931;52.164;5.518;2023-05-09T09:55:21;3.05;;;2.05;;
21539;SDS011;10931;52.164;5.518;2023-05-09T09:57:51;2.17;;;1.50;;
21539;SDS011;10931;52.164;5.518;2023-05-09T10:00:26;2.10;;;1.60;;
21539;SDS011;10931;52.164;5.518;2023-05-09T10:02:57;3.80;;;1.50;;
21539;SDS011;10931;52.164;5.518;2023-05-09T10:05:29;3.67;;;1.83;;
21539;SDS011;10931;52.164;5.518;2023-05-09T10:08:02;1.95;;;1.50;;
21539;SDS011;10931;52.164;5.518;2023-05-09T10:10:32;2.13;;;1.52;;
21539;SDS011;10931;52.164;5.518;2023-05-09T10:13:01;2.08;;;1.42;;
21539;SDS011;10931;52.164;5.518;2023-05-09T10:15:31;2.17;;;1.50;;
21539;SDS011;10931;52.164;5.518;2023-05-09T10:17:59;1.67;;;1.25;;
21539;SDS011;10931;52.164;5.518;2023-05-09T10:20:28;1.95;;;1.40;;
21539;SDS011;10931;52.164;5.518;2023-05-09T10:22:55;2.25;;;1.60;;
21539;SDS011;10931;52.164;5.518;2023-05-09T10:25:26;2.97;;;1.67;;
21539;SDS011;10931;52.164;5.518;2023-05-09T10:28:01;2.38;;;1.60;;
21539;SDS011;10931;52.164;5.518;2023-05-09T10:30:34;2.15;;;1.50;;
21539;SDS011;10931;52.164;5.518;2023-05-09T10:33:08;1.77;;;1.45;;
21539;SDS011;10931;52.164;5.518;2023-05-09T10:35:39;1.52;;;1.30;;
21539;SDS011;10931;52.164;5.518;2023-05-09T10:38:08;2.15;;;1.60;;
21539;SDS011;10931;52.164;5.518;2023-05-09T10:40:36;1.98;;;1.20;;
21539;SDS011;10931;52.164;5.518;2023-05-09T10:43:04;2.05;;;1.42;;
21539;SDS011;10931;52.164;5.518;2023-05-09T10:45:31;2.10;;;1.38;;
21539;SDS011;10931;52.164;5.518;2023-05-09T10:47:57;1.90;;;1.30;;
21539;SDS011;10931;52.164;5.518;2023-05-09T10:50:25;2.38;;;1.50;;
21539;SDS011;10931;52.164;5.518;2023-05-09T10:58:33;1.45;;;1.10;;
21539;SDS011;10931;52.164;5.518;2023-05-09T11:01:11;2.22;;;1.48;;
21539;SDS011;10931;52.164;5.518;2023-05-09T11:07:00;1.27;;;1.17;;
21539;SDS011;10931;52.164;5.518;2023-05-09T11:09:36;2.22;;;1.42;;
21539;SDS011;10931;52.164;5.518;2023-05-09T11:17:09;1.90;;;1.30;;
21539;SDS011;10931;52.164;5.518;2023-05-09T11:22:46;4.32;;;1.10;;
21539;SDS011;10931;52.164;5.518;2023-05-09T11:25:13;2.47;;;1.30;;
21539;SDS011;10931;52.164;5.518;2023-05-09T11:27:45;1.48;;;1.13;;
21539;SDS011;10931;52.164;5.518;2023-05-09T11:30:15;1.75;;;1.10;;
21539;SDS011;10931;52.164;5.518;2023-05-09T11:35:23;2.17;;;1.27;;
21539;SDS011;10931;52.164;5.518;2023-05-09T11:37:51;1.75;;;1.17;;
21539;SDS011;10931;52.164;5.518;2023-05-09T11:40:24;1.90;;;1.27;;
21539;SDS011;10931;52.164;5.518;2023-05-09T11:42:53;1.90;;;1.20;;
21539;SDS011;10931;52.164;5.518;2023-05-09T11:45:20;1.58;;;1.10;;
21539;SDS011;10931;52.164;5.518;2023-05-09T11:47:48;1.60;;;1.10;;
21539;SDS011;10931;52.164;5.518;2023-05-09T11:50:18;1.20;;;0.90;;
21539;SDS011;10931;52.164;5.518;2023-05-09T11:52:45;1.38;;;1.00;;
21539;SDS011;10931;52.164;5.518;2023-05-09T11:55:12;1.52;;;1.17;;
21539;SDS011;10931;52.164;5.518;2023-05-09T11:57:40;1.02;;;0.93;;
21539;SDS011;10931;52.164;5.518;2023-05-09T12:00:08;1.63;;;1.20;;
21539;SDS011;10931;52.164;5.518;2023-05-09T12:02:35;1.15;;;0.82;;
21539;SDS011;10931;52.164;5.518;2023-05-09T12:08:02;1.23;;;1.05;;
21539;SDS011;10931;52.164;5.518;2023-05-09T12:10:29;1.48;;;1.20;;
21539;SDS011;10931;52.164;5.518;2023-05-09T12:13:00;1.60;;;1.08;;
21539;SDS011;10931;52.164;5.518;2023-05-09T12:18:26;1.35;;;1.10;;
21539;SDS011;10931;52.164;5.518;2023-05-09T12:20:52;1.45;;;1.00;;
21539;SDS011;10931;52.164;5.518;2023-05-09T12:23:17;1.10;;;1.00;;
21539;SDS011;10931;52.164;5.518;2023-05-09T12:25:47;0.93;;;0.80;;
21539;SDS011;10931;52.164;5.518;2023-05-09T12:28:17;3.08;;;1.30;;
21539;SDS011;10931;52.164;5.518;2023-05-09T12:30:43;1.52;;;1.13;;
21539;SDS011;10931;52.164;5.518;2023-05-09T12:33:10;2.15;;;1.20;;
21539;SDS011;10931;52.164;5.518;2023-05-09T12:35:37;2.47;;;1.08;;
21539;SDS011;10931;52.164;5.518;2023-05-09T12:38:03;1.65;;;1.00;;
21539;SDS011;10931;52.164;5.518;2023-05-09T12:40:29;2.20;;;1.23;;
21539;SDS011;10931;52.164;5.518;2023-05-09T12:42:57;1.20;;;1.00;;
21539;SDS011;10931;52.164;5.518;2023-05-09T12:45:25;1.48;;;1.00;;
21539;SDS011;10931;52.164;5.518;2023-05-09T12:47:51;1.23;;;0.90;;
21539;SDS011;10931;52.164;5.518;2023-05-09T12:50:18;1.20;;;1.00;;
21539;SDS011;10931;52.164;5.518;2023-05-09T12:52:48;1.60;;;1.00;;
21539;SDS011;10931;52.164;5.518;2023-05-09T12:55:18;1.40;;;0.98;;
21539;SDS011;10931;52.164;5.518;2023-05-09T12:57:55;2.22;;;1.23;;
21539;SDS011;10931;52.164;5.518;2023-05-09T13:00:27;1.15;;;1.00;;
21539;SDS011;10931;52.164;5.518;2023-05-09T13:02:53;1.48;;;0.98;;
21539;SDS011;10931;52.164;5.518;2023-05-09T13:05:20;1.40;;;1.00;;
21539;SDS011;10931;52.164;5.518;2023-05-09T13:07:48;1.33;;;0.93;;
21539;SDS011;10931;52.164;5.518;2023-05-09T13:10:23;3.00;;;0.90;;
21539;SDS011;10931;52.164;5.518;2023-05-09T13:12:52;2.58;;;1.30;;
21539;SDS011;10931;52.164;5.518;2023-05-09T13:15:18;2.45;;;1.20;;
21539;SDS011;10931;52.164;5.518;2023-05-09T13:17:49;1.23;;;0.98;;
21539;SDS011;10931;52.164;5.518;2023-05-09T13:20:15;1.20;;;1.00;;
21539;SDS011;10931;52.164;5.518;2023-05-09T13:22:42;2.50;;;1.27;;
21539;SDS011;10931;52.164;5.518;2023-05-09T13:25:09;1.60;;;1.10;;
21539;SDS011;10931;52.164;5.518;2023-05-09T13:27:35;2.75;;;1.10;;
21539;SDS011;10931;52.164;5.518;2023-05-09T13:30:02;1.10;;;0.90;;
21539;SDS011;10931;52.164;5.518;2023-05-09T13:32:29;1.08;;;0.77;;
21539;SDS011;10931;52.164;5.518;2023-05-09T13:34:55;1.13;;;0.90;;
21539;SDS011;10931;52.164;5.518;2023-05-09T13:37:21;1.40;;;1.02;;
21539;SDS011;10931;52.164;5.518;2023-05-09T13:39:47;1.85;;;0.95;;
21539;SDS011;10931;52.164;5.518;2023-05-09T13:42:12;1.38;;;1.15;;
21539;SDS011;10931;52.164;5.518;2023-05-09T13:44:41;0.93;;;0.70;;
21539;SDS011;10931;52.164;5.518;2023-05-09T13:47:08;1.90;;;1.05;;
21539;SDS011;10931;52.164;5.518;2023-05-09T13:49:35;1.13;;;0.90;;
21539;SDS011;10931;52.164;5.518;2023-05-09T13:52:02;1.40;;;0.80;;
21539;SDS011;10931;52.164;5.518;2023-05-09T13:54:28;1.20;;;1.00;;
21539;SDS011;10931;52.164;5.518;2023-05-09T13:56:59;1.70;;;1.20;;
21539;SDS011;10931;52.164;5.518;2023-05-09T13:59:27;1.52;;;1.10;;
21539;SDS011;10931;52.164;5.518;2023-05-09T14:01:54;1.20;;;1.02;;
21539;SDS011;10931;52.164;5.518;2023-05-09T14:04:24;1.38;;;1.08;;
21539;SDS011;10931;52.164;5.518;2023-05-09T14:06:50;1.70;;;1.05;;
21539;SDS011;10931;52.164;5.518;2023-05-09T14:09:17;1.65;;;1.25;;
21539;SDS011;10931;52.164;5.518;2023-05-09T14:11:45;1.13;;;0.88;;
21539;SDS011;10931;52.164;5.518;2023-05-09T14:14:11;1.00;;;0.80;;
21539;SDS011;10931;52.164;5.518;2023-05-09T14:16:37;2.10;;;0.98;;
21539;SDS011;10931;52.164;5.518;2023-05-09T14:19:03;1.20;;;0.82;;
21539;SDS011;10931;52.164;5.518;2023-05-09T14:21:29;1.50;;;0.95;;
21539;SDS011;10931;52.164;5.518;2023-05-09T14:23:57;1.00;;;0.85;;
21539;SDS011;10931;52.164;5.518;2023-05-09T14:26:23;1.30;;;1.00;;
21539;SDS011;10931;52.164;5.518;2023-05-09T14:28:50;1.38;;;0.95;;
21539;SDS011;10931;52.164;5.518;2023-05-09T14:31:17;1.45;;;0.90;;
21539;SDS011;10931;52.164;5.518;2023-05-09T14:33:43;1.08;;;0.90;;
21539;SDS011;10931;52.164;5.518;2023-05-09T14:36:09;1.13;;;0.80;;
21539;SDS011;10931;52.164;5.518;2023-05-09T14:38:42;1.23;;;0.65;;
21539;SDS011;10931;52.164;5.518;2023-05-09T14:41:09;1.00;;;0.90;;
21539;SDS011;10931;52.164;5.518;2023-05-09T14:43:35;1.20;;;0.90;;
21539;SDS011;10931;52.164;5.518;2023-05-09T14:46:01;1.38;;;0.93;;
21539;SDS011;10931;52.164;5.518;2023-05-09T14:48:26;1.63;;;1.00;;
21539;SDS011;10931;52.164;5.518;2023-05-09T14:50:52;0.95;;;0.80;;
21539;SDS011;10931;52.164;5.518;2023-05-09T14:53:21;1.20;;;0.80;;
21539;SDS011;10931;52.164;5.518;2023-05-09T14:55:47;1.73;;;1.00;;
21539;SDS011;10931;52.164;5.518;2023-05-09T14:58:13;1.20;;;0.68;;
21539;SDS011;10931;52.164;5.518;2023-05-09T15:00:42;1.15;;;0.98;;
21539;SDS011;10931;52.164;5.518;2023-05-09T15:03:08;0.70;;;0.70;;
21539;SDS011;10931;52.164;5.518;2023-05-09T15:05:34;1.52;;;0.80;;
21539;SDS011;10931;52.164;5.518;2023-05-09T15:08:00;1.45;;;1.00;;
21539;SDS011;10931;52.164;5.518;2023-05-09T15:10:26;1.30;;;0.98;;
21539;SDS011;10931;52.164;5.518;2023-05-09T15:12:52;1.70;;;0.90;;
21539;SDS011;10931;52.164;5.518;2023-05-09T15:15:20;1.45;;;0.98;;
21539;SDS011;10931;52.164;5.518;2023-05-09T15:17:48;1.50;;;0.82;;
21539;SDS011;10931;52.164;5.518;2023-05-09T15:20:14;1.55;;;1.00;;
21539;SDS011;10931;52.164;5.518;2023-05-09T15:22:42;0.95;;;0.90;;
21539;SDS011;10931;52.164;5.518;2023-05-09T15:25:08;1.63;;;0.95;;
21539;SDS011;10931;52.164;5.518;2023-05-09T15:27:36;1.35;;;1.00;;